Time;durP1;ratioP1;P1;durP2;ratioP2;P2;SDS_P1;SDS_P2;PMS_P1;PMS_P2;Temp;Humidity;BMP_temperature;BMP_pressure;BME280_temperature;BME280_humidity;BME280_pressure;Samples;Min_cycle;Max_cycle;Signal;HPM_P1;HPM_P2
2022/02/13 00:02:08;;;;;;;15.83;11.33;;;2.10;99.90;;;;;;4938787;29;20468;-64
2022/02/13 00:04:35;;;;;;;13.57;12.10;;;2.00;99.90;;;;;;4938329;29;21026;-64
2022/02/13 00:07:02;;;;;;;13.53;11.90;;;2.00;99.90;;;;;;4938117;29;20490;-64
2022/02/13 00:09:30;;;;;;;14.77;12.13;;;2.00;99.90;;;;;;4937980;29;20460;-64
2022/02/13 00:12:00;;;;;;;14.10;12.30;;;1.90;99.90;;;;;;4938579;29;20447;-64
2022/02/13 00:14:27;;;;;;;16.00;12.27;;;1.90;99.90;;;;;;4938409;29;20458;-64
2022/02/13 00:16:55;;;;;;;16.17;12.50;;;1.90;99.90;;;;;;4938173;29;20493;-64
2022/02/13 00:19:22;;;;;;;17.30;13.43;;;1.80;99.90;;;;;;4938366;29;20465;-64
2022/02/13 00:21:49;;;;;;;14.20;12.70;;;1.90;99.90;;;;;;4938626;29;20469;-64
2022/02/13 00:24:15;;;;;;;12.63;11.33;;;1.90;99.90;;;;;;4938157;29;20461;-65
2022/02/13 00:26:42;;;;;;;13.33;11.93;;;1.90;99.90;;;;;;4938214;29;20482;-64
2022/02/13 00:29:10;;;;;;;14.13;11.83;;;1.90;99.90;;;;;;4938136;29;20968;-65
2022/02/13 00:31:37;;;;;;;12.17;10.97;;;1.90;99.90;;;;;;4937841;29;20554;-66
2022/02/13 00:34:05;;;;;;;12.30;11.00;;;1.90;99.90;;;;;;4938067;29;20462;-64
2022/02/13 00:36:32;;;;;;;13.83;11.17;;;1.90;99.90;;;;;;4937831;29;20491;-64
2022/02/13 00:38:59;;;;;;;14.83;11.87;;;1.90;99.90;;;;;;4938449;29;20467;-64
2022/02/13 00:41:26;;;;;;;12.40;11.03;;;1.90;99.90;;;;;;4940718;29;20877;-64
2022/02/13 00:43:53;;;;;;;14.07;11.00;;;1.90;99.90;;;;;;4937898;29;20496;-65
2022/02/13 00:46:19;;;;;;;12.33;10.90;;;1.90;99.90;;;;;;4937875;29;20484;-64
2022/02/13 00:48:46;;;;;;;12.93;11.27;;;1.90;99.90;;;;;;4938075;29;20466;-63
2022/02/13 00:51:14;;;;;;;13.57;11.10;;;1.80;99.90;;;;;;4938125;29;20462;-65
2022/02/13 00:53:41;;;;;;;13.43;11.00;;;1.80;99.90;;;;;;4937760;29;20457;-65
2022/02/13 00:56:08;;;;;;;12.07;10.83;;;1.70;99.90;;;;;;4937819;29;20581;-63
2022/02/13 00:58:35;;;;;;;13.03;11.63;;;1.60;99.90;;;;;;4941234;29;20458;-65
2022/02/13 01:01:02;;;;;;;14.53;11.60;;;1.60;99.90;;;;;;4945248;29;20470;-63
2022/02/13 01:03:29;;;;;;;13.63;12.10;;;1.60;99.90;;;;;;4942665;29;20459;-64
2022/02/13 01:05:56;;;;;;;13.90;12.53;;;1.50;99.90;;;;;;4937419;29;20453;-65
2022/02/13 01:08:24;;;;;;;13.20;12.00;;;1.50;99.90;;;;;;4938014;29;20441;-64
2022/02/13 01:10:51;;;;;;;13.60;12.00;;;1.50;99.90;;;;;;4937439;29;20464;-64
2022/02/13 01:13:17;;;;;;;12.17;10.97;;;1.50;99.90;;;;;;4937428;29;20471;-64
2022/02/13 01:15:44;;;;;;;14.03;11.40;;;1.40;99.90;;;;;;4937671;29;20491;-64
2022/02/13 01:18:11;;;;;;;12.70;11.60;;;1.40;99.90;;;;;;4937295;29;20471;-64
2022/02/13 01:20:38;;;;;;;14.67;12.43;;;1.40;99.90;;;;;;4937496;29;20454;-64
2022/02/13 01:23:05;;;;;;;12.07;10.87;;;1.30;99.90;;;;;;4936015;29;20940;-64
2022/02/13 01:25:33;;;;;;;13.80;12.37;;;1.30;99.90;;;;;;4937043;29;20945;-65
2022/02/13 01:28:00;;;;;;;13.47;12.10;;;1.30;99.90;;;;;;4937098;29;20486;-65
2022/02/13 01:30:26;;;;;;;13.43;12.03;;;1.30;99.90;;;;;;4937081;29;20811;-64
2022/02/13 01:32:53;;;;;;;16.97;11.93;;;1.40;99.90;;;;;;4936935;29;20798;-64
2022/02/13 01:35:20;;;;;;;12.57;11.37;;;1.30;99.90;;;;;;4937207;29;20469;-64
2022/02/13 01:37:47;;;;;;;13.07;10.93;;;1.30;99.90;;;;;;4936891;29;20486;-65
2022/02/13 01:40:14;;;;;;;12.30;11.00;;;1.20;99.90;;;;;;4936941;29;20935;-64
2022/02/13 01:42:43;;;;;;;13.00;11.67;;;1.20;99.90;;;;;;4936791;29;20465;-63
2022/02/13 01:45:10;;;;;;;13.30;11.90;;;1.20;99.90;;;;;;4936571;29;20455;-64
2022/02/13 01:47:38;;;;;;;12.23;10.90;;;1.20;99.90;;;;;;4936602;29;21021;-63
2022/02/13 01:50:08;;;;;;;13.00;11.70;;;1.20;99.90;;;;;;4936593;29;20946;-64
2022/02/13 01:52:35;;;;;;;11.60;10.47;;;1.20;99.90;;;;;;4936427;29;20950;-64
2022/02/13 01:55:02;;;;;;;12.20;10.87;;;1.20;99.90;;;;;;4936291;29;20465;-64
2022/02/13 01:57:29;;;;;;;13.07;11.30;;;1.20;99.90;;;;;;4936201;29;20524;-64
2022/02/13 01:59:57;;;;;;;12.20;11.00;;;1.30;99.90;;;;;;4936739;29;20478;-65
2022/02/13 02:02:24;;;;;;;12.60;10.73;;;1.30;99.90;;;;;;4936286;29;20457;-64
2022/02/13 02:04:53;;;;;;;12.23;10.90;;;1.30;99.90;;;;;;4936218;29;20567;-64
2022/02/13 02:07:20;;;;;;;11.10;10.10;;;1.30;99.90;;;;;;4935928;29;20487;-64
2022/02/13 02:09:47;;;;;;;11.83;10.73;;;1.40;99.90;;;;;;4936688;29;20463;-64
2022/02/13 02:12:14;;;;;;;12.60;9.67;;;1.40;99.90;;;;;;4936483;29;20464;-63
2022/02/13 02:14:41;;;;;;;12.43;10.47;;;1.40;99.90;;;;;;4936662;29;20491;-64
2022/02/13 02:17:09;;;;;;;11.10;10.00;;;1.40;99.90;;;;;;4936361;29;20926;-65
2022/02/13 02:19:37;;;;;;;12.23;10.40;;;1.50;99.90;;;;;;4936659;29;20462;-63
2022/02/13 02:22:06;;;;;;;11.93;10.83;;;1.50;99.90;;;;;;4936442;29;20458;-64
2022/02/13 02:24:34;;;;;;;10.87;9.83;;;1.60;99.90;;;;;;4936201;29;20470;-64
2022/02/13 02:27:01;;;;;;;12.27;10.27;;;1.60;99.90;;;;;;4937225;29;20528;-65
2022/02/13 02:29:29;;;;;;;11.43;10.23;;;1.60;99.90;;;;;;4936366;29;20524;-63
2022/02/13 02:31:56;;;;;;;10.70;9.60;;;1.60;99.90;;;;;;4945874;29;20457;-64
2022/02/13 02:34:22;;;;;;;12.40;9.77;;;1.50;99.90;;;;;;4944608;29;20461;-65
2022/02/13 02:36:49;;;;;;;12.93;10.30;;;1.60;99.90;;;;;;4940210;29;20491;-64
2022/02/13 02:39:16;;;;;;;14.20;10.73;;;1.60;99.90;;;;;;4940336;29;20520;-64
2022/02/13 02:41:44;;;;;;;12.17;9.93;;;1.60;99.90;;;;;;4940265;29;20562;-64
2022/02/13 02:44:11;;;;;;;11.77;10.57;;;1.50;99.90;;;;;;4939999;29;20469;-64
2022/02/13 02:46:38;;;;;;;12.97;11.67;;;1.50;99.90;;;;;;4940039;29;20474;-64
2022/02/13 02:49:05;;;;;;;12.60;10.53;;;1.40;99.90;;;;;;4939998;29;20459;-64
2022/02/13 02:51:31;;;;;;;12.13;10.83;;;1.40;99.90;;;;;;4940045;29;20513;-64
2022/02/13 02:53:58;;;;;;;12.07;10.83;;;1.40;99.90;;;;;;4940014;29;20478;-64
2022/02/13 02:56:25;;;;;;;11.63;10.43;;;1.40;99.90;;;;;;4939948;29;20482;-64
2022/02/13 02:58:53;;;;;;;12.77;11.17;;;1.40;99.90;;;;;;4939971;29;20860;-64
2022/02/13 03:01:20;;;;;;;13.27;11.30;;;1.40;99.90;;;;;;4939821;29;20462;-64
2022/02/13 03:03:47;;;;;;;14.60;11.40;;;1.40;99.90;;;;;;4939569;29;20460;-66
2022/02/13 03:06:13;;;;;;;13.00;11.10;;;1.30;99.90;;;;;;4939716;29;20495;-63
2022/02/13 03:08:40;;;;;;;12.70;11.50;;;1.30;99.90;;;;;;4939688;29;20486;-63
2022/02/13 03:11:07;;;;;;;13.07;11.60;;;1.30;99.90;;;;;;4939583;29;20465;-64
2022/02/13 03:13:34;;;;;;;13.57;11.60;;;1.30;99.90;;;;;;4939656;29;20493;-64
2022/02/13 03:16:02;;;;;;;12.23;11.13;;;1.30;99.90;;;;;;4940108;29;20487;-64
2022/02/13 03:18:30;;;;;;;12.80;11.60;;;1.30;99.90;;;;;;4940023;29;20467;-64
2022/02/13 03:20:58;;;;;;;17.80;12.50;;;1.20;99.90;;;;;;4939226;29;20957;-64
2022/02/13 03:23:25;;;;;;;13.20;11.90;;;1.10;99.90;;;;;;4939483;29;20464;-63
2022/02/13 03:25:51;;;;;;;12.40;11.20;;;1.10;99.90;;;;;;4939581;29;20507;-64
2022/02/13 03:28:18;;;;;;;15.37;13.23;;;1.10;99.90;;;;;;4939026;29;20947;-63
2022/02/13 03:30:45;;;;;;;13.50;12.20;;;1.10;99.90;;;;;;4939011;29;20931;-64
2022/02/13 03:33:13;;;;;;;13.07;11.87;;;1.10;99.90;;;;;;4939364;29;20960;-64
2022/02/13 03:35:42;;;;;;;15.00;12.90;;;1.10;99.90;;;;;;4941607;29;20455;-63
2022/02/13 03:38:09;;;;;;;13.90;12.50;;;1.10;99.90;;;;;;4943783;29;20568;-63
2022/02/13 03:40:36;;;;;;;13.60;12.00;;;1.10;99.90;;;;;;4943696;29;20470;-63
2022/02/13 03:43:05;;;;;;;13.23;11.93;;;1.20;99.90;;;;;;4943689;29;20513;-63
2022/02/13 03:45:32;;;;;;;13.30;11.23;;;1.20;99.90;;;;;;4938744;29;20512;-65
2022/02/13 03:47:58;;;;;;;13.03;11.17;;;1.20;99.90;;;;;;4938870;29;20479;-65
2022/02/13 03:50:27;;;;;;;16.93;11.90;;;1.20;99.90;;;;;;4939060;29;20471;-65
2022/02/13 03:52:53;;;;;;;14.23;12.60;;;1.20;99.90;;;;;;4938778;29;20461;-64
2022/02/13 03:55:20;;;;;;;17.97;11.77;;;1.20;99.90;;;;;;4938506;29;20460;-64
2022/02/13 03:57:47;;;;;;;12.53;11.37;;;1.20;99.90;;;;;;4938531;29;20850;-64
2022/02/13 04:00:14;;;;;;;12.97;11.67;;;1.20;99.90;;;;;;4938894;29;20462;-64
2022/02/13 04:02:42;;;;;;;12.60;11.30;;;1.20;99.90;;;;;;4940510;29;20837;-63
2022/02/13 04:05:10;;;;;;;13.07;11.73;;;1.10;99.90;;;;;;4952377;29;20937;-63
2022/02/13 04:07:39;;;;;;;12.80;11.40;;;1.10;99.90;;;;;;4943868;29;20515;-64
2022/02/13 04:10:07;;;;;;;13.00;11.80;;;1.00;99.90;;;;;;4938712;29;20456;-65
2022/02/13 04:12:34;;;;;;;13.03;11.73;;;1.00;99.90;;;;;;4938555;29;20458;-65
2022/02/13 04:15:01;;;;;;;13.87;12.47;;;1.00;99.90;;;;;;4938458;29;20459;-64
2022/02/13 04:17:28;;;;;;;15.87;12.00;;;1.00;99.90;;;;;;4938414;29;20515;-64
2022/02/13 04:19:54;;;;;;;15.90;12.53;;;1.00;99.90;;;;;;4938455;29;20873;-64
2022/02/13 04:22:21;;;;;;;13.70;12.30;;;1.00;99.90;;;;;;4938435;29;20465;-64
2022/02/13 04:24:49;;;;;;;13.20;11.83;;;1.00;99.90;;;;;;4938127;29;20461;-64
2022/02/13 04:27:16;;;;;;;12.60;11.30;;;1.00;99.90;;;;;;4940507;29;20473;-64
2022/02/13 04:29:43;;;;;;;12.67;11.37;;;1.00;99.90;;;;;;4940339;29;20481;-64
2022/02/13 04:32:09;;;;;;;13.10;11.57;;;1.10;99.90;;;;;;4940674;29;20461;-64
2022/02/13 04:34:36;;;;;;;13.13;11.20;;;1.10;99.90;;;;;;4941108;29;20575;-65
2022/02/13 04:37:03;;;;;;;10.60;9.60;;;1.10;99.90;;;;;;4938769;29;20494;-65
2022/02/13 04:39:30;;;;;;;13.00;11.70;;;1.10;99.90;;;;;;4940289;29;20473;-64
2022/02/13 04:41:58;;;;;;;14.20;11.97;;;1.20;99.90;;;;;;4943217;29;20457;-64
2022/02/13 04:44:25;;;;;;;13.60;11.30;;;1.20;99.90;;;;;;4943726;29;20463;-64
2022/02/13 04:46:52;;;;;;;12.57;11.33;;;1.20;99.90;;;;;;4944543;29;20475;-63
2022/02/13 04:49:18;;;;;;;12.00;10.90;;;1.20;99.90;;;;;;4942752;29;20815;-64
2022/02/13 04:51:45;;;;;;;13.37;11.30;;;1.20;99.90;;;;;;4938135;29;20461;-63
2022/02/13 04:54:12;;;;;;;19.30;11.50;;;1.20;99.90;;;;;;4937757;29;20468;-63
2022/02/13 04:56:39;;;;;;;13.53;10.87;;;1.20;99.90;;;;;;4937622;29;20485;-63
2022/02/13 04:59:07;;;;;;;14.80;11.07;;;1.20;99.90;;;;;;4937548;29;20463;-63
2022/02/13 05:01:34;;;;;;;13.20;11.77;;;1.20;99.90;;;;;;4937852;29;20458;-66
2022/02/13 05:04:00;;;;;;;12.70;11.40;;;1.30;99.90;;;;;;4937801;29;20517;-64
2022/02/13 05:06:27;;;;;;;15.00;11.83;;;1.30;99.90;;;;;;4937408;29;20550;-64
2022/02/13 05:08:56;;;;;;;13.17;11.87;;;1.30;99.90;;;;;;4937225;29;20453;-64
2022/02/13 05:11:22;;;;;;;14.03;12.10;;;1.30;99.90;;;;;;4937603;29;20555;-64
2022/02/13 05:13:50;;;;;;;12.37;10.73;;;1.20;99.90;;;;;;4937622;29;20468;-65
2022/02/13 05:16:18;;;;;;;14.57;11.60;;;1.20;99.90;;;;;;4937362;29;20482;-64
2022/02/13 05:18:44;;;;;;;13.33;11.83;;;1.20;99.90;;;;;;4937081;29;20483;-64
2022/02/13 05:21:11;;;;;;;12.20;11.00;;;1.20;99.90;;;;;;4937066;29;20836;-64
2022/02/13 05:23:38;;;;;;;12.30;11.00;;;1.20;99.90;;;;;;4937566;29;20463;-64
2022/02/13 05:26:04;;;;;;;14.20;11.80;;;1.20;99.90;;;;;;4937362;29;20482;-64
2022/02/13 05:28:31;;;;;;;13.13;10.70;;;1.10;99.90;;;;;;4937319;29;20458;-64
2022/02/13 05:30:58;;;;;;;13.40;10.60;;;1.20;99.90;;;;;;4937277;29;20470;-63
2022/02/13 05:33:26;;;;;;;13.03;11.23;;;1.10;99.90;;;;;;4937443;29;20467;-64
2022/02/13 05:35:53;;;;;;;12.47;11.17;;;1.10;99.90;;;;;;4940702;29;20521;-64
2022/02/13 05:38:19;;;;;;;12.90;11.70;;;1.10;99.90;;;;;;4947129;29;20525;-64
2022/02/13 05:40:46;;;;;;;13.43;12.13;;;1.20;99.90;;;;;;4939232;29;20468;-63
2022/02/13 05:43:13;;;;;;;12.03;10.83;;;1.10;99.90;;;;;;4937282;29;20458;-63
2022/02/13 05:45:40;;;;;;;11.40;10.27;;;1.20;99.90;;;;;;4936962;29;20467;-64
2022/02/13 05:48:07;;;;;;;12.50;11.20;;;1.20;99.90;;;;;;4937016;29;20460;-64
2022/02/13 05:50:37;;;;;;;13.00;11.60;;;1.30;99.90;;;;;;4936850;29;20543;-64
2022/02/13 05:53:05;;;;;;;15.07;11.63;;;1.30;99.90;;;;;;4936849;29;20450;-65
2022/02/13 05:55:31;;;;;;;12.57;11.30;;;1.30;99.90;;;;;;4936837;29;20474;-65
2022/02/13 05:57:58;;;;;;;12.63;11.43;;;1.30;99.90;;;;;;4936703;29;20490;-65
2022/02/13 06:00:25;;;;;;;12.50;11.20;;;1.20;99.90;;;;;;4937095;29;20465;-64
2022/02/13 06:02:52;;;;;;;15.37;12.57;;;1.30;99.90;;;;;;4937302;29;20615;-64
2022/02/13 06:05:18;;;;;;;13.90;12.50;;;1.10;99.90;;;;;;4937528;29;20863;-64
2022/02/13 06:07:46;;;;;;;14.83;13.37;;;1.10;99.90;;;;;;4936863;29;20490;-64
2022/02/13 06:10:13;;;;;;;13.13;11.83;;;1.00;99.90;;;;;;4937295;29;20461;-66
2022/02/13 06:12:41;;;;;;;13.50;12.07;;;1.00;99.90;;;;;;4937499;29;20464;-63
2022/02/13 06:15:09;;;;;;;14.30;12.80;;;1.10;99.90;;;;;;4936987;29;20495;-65
2022/02/13 06:17:36;;;;;;;15.33;13.17;;;1.00;99.90;;;;;;4937344;29;20481;-65
2022/02/13 06:20:04;;;;;;;13.77;12.37;;;1.00;99.90;;;;;;4937351;29;20460;-63
2022/02/13 06:22:31;;;;;;;15.00;13.60;;;1.00;99.90;;;;;;4936649;29;20521;-63
2022/02/13 06:24:59;;;;;;;15.47;13.80;;;0.90;99.90;;;;;;4936537;29;20826;-65
2022/02/13 06:27:25;;;;;;;14.93;13.43;;;0.90;99.90;;;;;;4936608;29;20476;-65
2022/02/13 06:29:52;;;;;;;14.20;12.70;;;0.80;99.90;;;;;;4936566;29;20473;-64
2022/02/13 06:32:19;;;;;;;15.83;14.27;;;0.80;99.90;;;;;;4936253;29;20466;-64
2022/02/13 06:34:46;;;;;;;14.50;12.77;;;0.70;99.90;;;;;;4936514;29;20795;-65
2022/02/13 06:37:13;;;;;;;15.60;13.93;;;0.70;99.90;;;;;;4937049;29;20481;-64
2022/02/13 06:39:40;;;;;;;17.30;14.27;;;0.80;99.90;;;;;;4936399;29;20465;-64
2022/02/13 06:42:08;;;;;;;14.13;12.47;;;0.70;99.90;;;;;;4936567;29;20456;-65
2022/02/13 06:44:35;;;;;;;12.07;10.80;;;0.70;99.90;;;;;;4936439;29;20468;-64
2022/02/13 06:47:02;;;;;;;11.70;10.50;;;0.70;99.90;;;;;;4936481;29;20490;-63
2022/02/13 06:49:28;;;;;;;12.27;11.00;;;0.70;99.90;;;;;;4936426;29;20513;-64
2022/02/13 06:51:55;;;;;;;12.40;11.10;;;0.70;99.90;;;;;;4936404;29;20468;-64
2022/02/13 06:54:22;;;;;;;10.90;9.90;;;0.70;99.90;;;;;;4936674;29;20459;-65
2022/02/13 06:56:48;;;;;;;11.30;10.10;;;0.80;99.90;;;;;;4936448;29;20482;-65
2022/02/13 06:59:17;;;;;;;11.10;9.90;;;0.80;99.90;;;;;;4936377;29;20485;-64
2022/02/13 07:01:44;;;;;;;13.40;10.37;;;0.80;99.90;;;;;;4936130;29;20940;-64
2022/02/13 07:04:11;;;;;;;12.10;10.90;;;0.90;99.90;;;;;;4936582;29;20465;-65
2022/02/13 07:06:38;;;;;;;10.23;9.23;;;0.90;99.90;;;;;;4935888;29;21056;-64
2022/02/13 07:09:06;;;;;;;10.13;9.03;;;1.00;99.90;;;;;;4937281;29;20460;-65
2022/02/13 07:11:33;;;;;;;11.83;9.50;;;1.10;99.90;;;;;;4937167;29;20513;-65
2022/02/13 07:14:00;;;;;;;10.30;9.27;;;1.20;99.90;;;;;;4936356;29;20463;-65
2022/02/13 07:16:29;;;;;;;11.80;8.70;;;1.30;99.90;;;;;;4936256;29;20524;-64
2022/02/13 07:18:56;;;;;;;9.20;8.30;;;1.30;99.90;;;;;;4937536;29;20537;-65
2022/02/13 07:21:23;;;;;;;8.87;8.10;;;1.30;99.90;;;;;;4939765;29;20471;-64
2022/02/13 07:23:50;;;;;;;10.13;9.00;;;1.40;99.90;;;;;;4939915;29;20449;-65
2022/02/13 07:26:17;;;;;;;12.30;9.60;;;1.50;99.90;;;;;;4939881;29;20477;-65
2022/02/13 07:29:02;;;;;;;10.97;9.00;;;1.70;99.90;;;;;;4939452;29;20463;-64
2022/02/13 07:31:32;;;;;;;10.10;9.10;;;1.80;99.90;;;;;;4939847;29;20454;-64
2022/02/13 07:33:59;;;;;;;10.73;9.63;;;2.00;99.90;;;;;;4939698;29;20498;-64
2022/02/13 07:36:26;;;;;;;9.43;8.50;;;2.40;99.90;;;;;;4948975;29;20493;-64
2022/02/13 07:38:53;;;;;;;10.10;8.80;;;3.00;99.90;;;;;;4949387;29;20484;-65
2022/02/13 07:41:20;;;;;;;8.90;7.53;;;3.60;99.90;;;;;;4940775;29;20460;-64
2022/02/13 07:43:47;;;;;;;8.40;7.70;;;4.30;99.90;;;;;;4939300;29;20890;-64
2022/02/13 07:46:14;;;;;;;7.90;6.80;;;4.90;99.90;;;;;;4939310;29;20491;-63
2022/02/13 07:48:42;;;;;;;8.43;7.63;;;5.70;99.90;;;;;;4939292;29;20452;-63
2022/02/13 07:51:10;;;;;;;8.10;7.13;;;6.60;99.90;;;;;;4939521;29;20456;-64
2022/02/13 07:53:37;;;;;;;7.63;6.90;;;7.40;99.90;;;;;;4939287;29;20873;-64
2022/02/13 07:56:04;;;;;;;8.43;7.30;;;8.20;99.90;;;;;;4942577;29;20477;-64
2022/02/13 07:58:32;;;;;;;7.03;6.13;;;9.10;99.90;;;;;;4943006;29;20468;-63
2022/02/13 08:00:59;;;;;;;8.23;7.27;;;9.90;99.10;;;;;;4942949;29;20463;-64
2022/02/13 08:03:26;;;;;;;8.77;7.47;;;10.30;95.50;;;;;;4943060;29;20468;-65
2022/02/13 08:05:54;;;;;;;6.83;6.13;;;10.50;94.30;;;;;;4938978;29;20504;-64
2022/02/13 08:08:21;;;;;;;7.90;7.10;;;10.60;93.10;;;;;;4939409;29;20448;-64
2022/02/13 08:10:48;;;;;;;7.33;6.73;;;10.40;92.90;;;;;;4938924;29;20485;-64
2022/02/13 08:13:15;;;;;;;12.27;7.27;;;10.30;92.40;;;;;;4938947;29;20479;-64
2022/02/13 08:15:42;;;;;;;7.50;6.80;;;10.20;92.30;;;;;;4938954;29;20871;-65
2022/02/13 08:18:12;;;;;;;7.47;6.77;;;9.90;93.40;;;;;;4938730;29;20480;-65
2022/02/13 08:20:39;;;;;;;8.10;6.97;;;9.40;93.80;;;;;;4938576;29;20805;-64
2022/02/13 08:23:09;;;;;;;8.07;7.27;;;8.80;95.00;;;;;;4938891;29;20460;-64
2022/02/13 08:25:36;;;;;;;9.80;7.67;;;8.20;96.00;;;;;;4939254;29;20457;-65
2022/02/13 08:28:05;;;;;;;11.10;7.97;;;7.70;97.50;;;;;;4939190;29;20480;-66
2022/02/13 08:30:31;;;;;;;9.43;7.40;;;7.30;99.00;;;;;;4938279;29;20461;-65
2022/02/13 08:32:59;;;;;;;9.07;7.67;;;7.30;99.90;;;;;;4938376;29;20511;-65
2022/02/13 08:35:26;;;;;;;11.13;7.20;;;8.40;99.90;;;;;;4938803;29;20504;-64
2022/02/13 08:37:53;;;;;;;7.90;7.20;;;9.50;98.60;;;;;;4938374;29;20488;-65
2022/02/13 08:40:21;;;;;;;7.97;7.00;;;11.10;99.90;;;;;;4938873;29;20445;-64
2022/02/13 08:42:48;;;;;;;8.13;7.27;;;12.20;97.40;;;;;;4939194;29;20464;-66
2022/02/13 08:45:15;;;;;;;10.90;7.43;;;13.20;98.30;;;;;;4938796;29;20461;-65
2022/02/13 08:47:42;;;;;;;8.03;7.23;;;13.70;86.30;;;;;;4938201;29;21015;-65
2022/02/13 08:50:10;;;;;;;17.20;6.93;;;13.70;82.70;;;;;;4938950;29;20453;-64
2022/02/13 08:52:37;;;;;;;11.60;8.20;;;13.80;81.70;;;;;;4938801;29;20456;-65
2022/02/13 08:55:04;;;;;;;7.80;7.00;;;13.40;81.60;;;;;;4939019;29;20805;-64
2022/02/13 08:57:32;;;;;;;8.73;7.93;;;13.80;81.20;;;;;;4938808;29;20976;-64
2022/02/13 08:59:59;;;;;;;7.70;6.90;;;14.00;79.10;;;;;;4938214;29;20484;-65
2022/02/13 09:02:25;;;;;;;8.30;6.30;;;14.20;78.90;;;;;;4938012;29;20461;-64
2022/02/13 09:04:52;;;;;;;9.00;6.67;;;14.70;77.20;;;;;;4938428;29;20456;-65
2022/02/13 09:07:19;;;;;;;7.47;6.87;;;15.10;75.30;;;;;;4937955;29;20491;-65
2022/02/13 09:09:47;;;;;;;8.20;6.77;;;15.70;74.10;;;;;;4937986;29;20829;-65
2022/02/13 09:12:15;;;;;;;7.60;6.90;;;16.10;72.40;;;;;;4938044;29;20457;-64
2022/02/13 09:14:43;;;;;;;9.17;7.37;;;16.50;71.20;;;;;;4938142;29;20511;-65
2022/02/13 09:17:09;;;;;;;8.63;6.50;;;17.20;69.50;;;;;;4938171;29;20484;-64
2022/02/13 09:19:36;;;;;;;7.60;6.80;;;17.60;66.10;;;;;;4938072;29;21018;-64
2022/02/13 09:22:03;;;;;;;7.33;6.73;;;17.30;65.50;;;;;;4938188;29;20460;-65
2022/02/13 09:24:30;;;;;;;7.60;6.80;;;16.70;66.20;;;;;;4937602;29;20972;-65
2022/02/13 09:26:56;;;;;;;7.47;6.77;;;17.30;67.60;;;;;;4937921;29;20480;-65
2022/02/13 09:29:23;;;;;;;8.13;6.93;;;17.20;64.40;;;;;;4937724;29;20464;-66
2022/02/13 09:31:51;;;;;;;7.50;6.80;;;17.10;65.20;;;;;;4938132;29;20468;-66
2022/02/13 09:34:25;;;;;;;11.63;7.13;;;17.60;64.30;;;;;;4937754;29;20469;-65
2022/02/13 09:36:51;;;;;;;7.63;6.93;;;17.40;61.60;;;;;;4937495;29;20981;-65
2022/02/13 09:39:18;;;;;;;8.20;7.40;;;17.90;63.90;;;;;;4937594;29;20487;-66
2022/02/13 09:41:45;;;;;;;9.40;7.37;;;18.20;60.50;;;;;;4937427;29;20834;-66
2022/02/13 09:44:12;;;;;;;7.53;6.73;;;17.60;59.80;;;;;;4936280;29;20846;-66
2022/02/13 09:46:39;;;;;;;7.33;6.63;;;17.90;60.70;;;;;;4937047;29;20488;-65
2022/02/13 09:49:07;;;;;;;7.23;6.40;;;17.50;59.80;;;;;;4937578;29;20456;-65
2022/02/13 09:51:34;;;;;;;8.00;7.13;;;17.60;60.20;;;;;;4937637;29;20465;-65
2022/02/13 09:54:02;;;;;;;7.10;6.40;;;17.70;60.90;;;;;;4937303;29;20862;-65
2022/02/13 09:56:28;;;;;;;9.50;6.97;;;17.70;60.40;;;;;;4937495;29;20511;-66
2022/02/13 09:58:55;;;;;;;8.37;7.57;;;18.20;60.00;;;;;;4937603;29;20516;-64
2022/02/13 10:01:36;;;;;;;7.93;7.10;;;18.40;59.80;;;;;;4937631;29;20468;-63
2022/02/13 10:04:03;;;;;;;9.57;7.80;;;18.90;59.30;;;;;;4938401;29;20515;-64
2022/02/13 10:06:31;;;;;;;8.60;7.37;;;19.10;58.10;;;;;;4951396;29;21004;-64
2022/02/13 10:08:58;;;;;;;7.63;6.80;;;18.80;57.80;;;;;;4950309;29;20460;-65
2022/02/13 10:11:28;;;;;;;8.37;7.57;;;18.40;57.90;;;;;;4954044;29;20483;-64
2022/02/13 10:13:57;;;;;;;10.67;7.00;;;18.50;59.00;;;;;;4957273;29;20469;-68
2022/02/13 10:16:26;;;;;;;8.87;7.90;;;18.90;58.80;;;;;;4942309;29;20473;-66
2022/02/13 10:18:56;;;;;;;7.97;7.17;;;18.90;58.20;;;;;;4942760;29;20487;-67
2022/02/13 10:21:36;;;;;;;11.23;7.07;;;18.40;57.80;;;;;;4947049;29;20464;-66
2022/02/13 10:24:26;;;;;;;9.63;7.37;;;19.00;58.80;;;;;;4942823;29;20835;-67
2022/02/13 10:27:05;;;;;;;7.53;6.30;;;19.60;57.40;;;;;;4938366;29;20484;-68
2022/02/13 10:29:34;;;;;;;9.07;6.23;;;20.00;57.20;;;;;;4939202;29;20448;-66
2022/02/13 10:32:18;;;;;;;10.50;6.93;;;20.70;59.20;;;;;;4939383;29;20461;-68
2022/02/13 10:35:03;;;;;;;8.03;7.33;;;20.90;54.70;;;;;;4939668;29;20801;-67
2022/02/13 10:37:56;;;;;;;7.20;6.60;;;21.40;55.10;;;;;;4943058;29;20481;-68
2022/02/13 10:40:25;;;;;;;7.63;7.00;;;21.10;53.90;;;;;;4924034;29;20512;-67
2022/02/13 10:43:03;;;;;;;8.80;7.63;;;20.60;55.00;;;;;;4941047;29;20812;-67
2022/02/13 10:45:32;;;;;;;9.73;8.03;;;20.70;55.20;;;;;;4938583;29;20448;-66
2022/02/13 10:48:00;;;;;;;8.50;7.60;;;20.60;54.90;;;;;;4937040;29;20476;-66
2022/02/13 10:50:30;;;;;;;8.67;7.20;;;21.10;55.10;;;;;;4936767;29;20467;-66
2022/02/13 10:53:01;;;;;;;10.90;7.93;;;21.40;53.70;;;;;;4936623;29;21000;-66
2022/02/13 10:55:29;;;;;;;9.43;7.70;;;20.70;54.20;;;;;;4946001;29;20441;-67
2022/02/13 10:57:57;;;;;;;10.20;7.13;;;20.40;54.30;;;;;;4947607;29;20476;-66
2022/02/13 11:00:26;;;;;;;8.90;7.13;;;19.90;54.70;;;;;;4942615;29;20480;-66
2022/02/13 11:02:55;;;;;;;7.93;7.23;;;19.70;55.30;;;;;;4941715;29;20460;-66
2022/02/13 11:05:25;;;;;;;10.77;7.53;;;19.90;56.00;;;;;;4942005;29;20468;-67
2022/02/13 11:07:55;;;;;;;8.03;7.23;;;19.80;55.20;;;;;;4940410;29;20488;-68
2022/02/13 11:10:27;;;;;;;7.83;6.67;;;20.10;55.90;;;;;;4940585;29;20448;-66
2022/02/13 11:12:55;;;;;;;10.93;6.83;;;19.90;55.90;;;;;;4940419;29;20445;-68
2022/02/13 11:15:23;;;;;;;7.37;6.63;;;19.00;57.00;;;;;;4940486;29;20461;-66
2022/02/13 11:17:52;;;;;;;9.73;6.73;;;18.60;56.20;;;;;;4941041;29;20476;-67
2022/02/13 11:20:20;;;;;;;9.50;7.43;;;18.00;57.10;;;;;;4948462;29;20484;-66
2022/02/13 11:22:53;;;;;;;7.40;6.20;;;17.60;57.70;;;;;;4948839;29;20528;-67
2022/02/13 11:25:51;;;;;;;10.77;6.63;;;17.00;58.30;;;;;;4948386;29;20445;-66
2022/02/13 11:28:19;;;;;;;8.40;6.83;;;16.70;60.30;;;;;;4940244;29;20445;-66
2022/02/13 11:30:47;;;;;;;7.97;6.77;;;16.50;64.00;;;;;;4940239;29;20480;-65
2022/02/13 11:33:42;;;;;;;10.20;7.07;;;16.40;61.80;;;;;;4940371;29;20461;-66
2022/02/13 11:36:11;;;;;;;6.53;5.73;;;16.20;64.30;;;;;;4939876;29;20477;-66
2022/02/13 11:38:58;;;;;;;10.50;7.23;;;16.10;63.80;;;;;;4939600;29;20502;-65
2022/02/13 11:42:08;;;;;;;10.50;6.67;;;15.80;62.60;;;;;;4939833;29;20447;-65
2022/02/13 11:44:48;;;;;;;9.00;7.30;;;15.70;63.90;;;;;;4939799;29;20499;-66
2022/02/13 11:47:16;;;;;;;9.33;6.70;;;15.50;64.70;;;;;;4950967;29;20529;-66
2022/02/13 11:50:21;;;;;;;7.80;5.80;;;15.00;63.00;;;;;;4945579;29;20488;-66
2022/02/13 11:53:05;;;;;;;6.87;6.17;;;14.90;64.60;;;;;;4939023;29;20814;-66
2022/02/13 11:55:36;;;;;;;10.30;6.20;;;14.90;65.40;;;;;;4939185;29;20540;-66
2022/02/13 11:58:13;;;;;;;7.50;6.73;;;14.90;62.20;;;;;;4939093;29;20875;-65
2022/02/13 12:00:54;;;;;;;11.50;6.50;;;14.90;64.60;;;;;;4938909;29;20469;-66
2022/02/13 12:03:24;;;;;;;9.80;6.70;;;15.00;65.20;;;;;;4938991;29;20452;-66
2022/02/13 12:06:22;;;;;;;5.80;5.20;;;15.10;65.30;;;;;;4937547;29;20500;-66
2022/02/13 12:08:49;;;;;;;7.93;5.20;;;15.10;62.20;;;;;;4939313;29;20445;-64
2022/02/13 12:11:18;;;;;;;6.63;4.63;;;15.30;60.70;;;;;;4938883;29;20460;-66
2022/02/13 12:13:45;;;;;;;5.00;4.40;;;15.40;59.40;;;;;;4938752;29;20464;-67
2022/02/13 12:16:13;;;;;;;4.90;4.23;;;15.50;59.60;;;;;;4938760;29;20481;-67
2022/02/13 12:18:39;;;;;;;7.67;4.63;;;15.50;62.00;;;;;;4938853;29;20456;-66
2022/02/13 12:21:08;;;;;;;6.23;4.57;;;15.40;60.50;;;;;;4939330;29;20555;-67
2022/02/13 12:23:35;;;;;;;6.17;4.40;;;15.30;59.50;;;;;;4939351;29;20476;-65
2022/02/13 12:26:03;;;;;;;6.23;4.87;;;15.30;59.30;;;;;;4939362;29;20460;-68
2022/02/13 12:28:31;;;;;;;5.40;4.20;;;15.20;59.60;;;;;;4938804;29;20461;-67
2022/02/13 12:31:00;;;;;;;6.50;4.43;;;15.20;61.60;;;;;;4939228;29;20552;-68
2022/02/13 12:33:28;;;;;;;6.93;4.50;;;15.10;60.80;;;;;;4938291;29;20492;-68
2022/02/13 12:35:56;;;;;;;5.17;4.67;;;15.20;61.30;;;;;;4938626;29;20467;-66
2022/02/13 12:38:24;;;;;;;7.33;4.80;;;15.20;60.50;;;;;;4938413;29;20456;-66
2022/02/13 12:40:54;;;;;;;5.90;4.50;;;15.00;59.90;;;;;;4938055;29;20480;-65
2022/02/13 12:43:22;;;;;;;5.00;4.13;;;15.10;61.40;;;;;;4938630;29;20460;-66
2022/02/13 12:45:51;;;;;;;5.00;4.20;;;15.20;61.20;;;;;;4937947;29;20456;-66
2022/02/13 12:48:21;;;;;;;5.43;4.57;;;15.20;60.20;;;;;;4938303;29;20464;-68